Time;durP1;ratioP1;P1;durP2;ratioP2;P2;SDS_P1;SDS_P2;PMS_P1;PMS_P2;Temp;Humidity;BMP_temperature;BMP_pressure;BME280_temperature;BME280_humidity;BME280_pressure;Samples;Min_cycle;Max_cycle;Signal;HPM_P1;HPM_P2
2021/12/28 00:01:06;;;;;;;13.57;7.40;;;;;7.70;99061.00;;;;4995282;28;20226;-72
2021/12/28 00:03:54;;;;;;;13.90;7.93;;;;;7.70;99050.00;;;;4998012;28;20379;-71
2021/12/28 00:06:40;;;;;;;11.47;7.03;;;;;7.70;99057.00;;;;5004058;28;20600;-71
2021/12/28 00:09:28;;;;;;;12.53;7.63;;;;;7.70;99057.00;;;;4993331;28;20746;-70
2021/12/28 00:12:14;;;;;;;16.73;8.30;;;;;7.60;99057.00;;;;4998548;28;20296;-71
2021/12/28 00:15:06;;;;;;;13.23;7.73;;;;;7.70;99052.00;;;;5001148;28;21002;-71
2021/12/28 00:18:02;;;;;;;11.53;6.80;;;;;7.70;99051.00;;;;5004474;28;20273;-70
2021/12/28 00:20:52;;;;;;;13.70;7.23;;;;;7.60;99041.00;;;;4998628;28;20282;-68
2021/12/28 00:23:39;;;;;;;12.40;7.77;;;;;7.60;99049.00;;;;4997915;28;20229;-70
2021/12/28 00:26:27;;;;;;;13.73;7.77;;;;;7.60;99048.00;;;;4992243;28;20367;-72
2021/12/28 00:29:13;;;;;;;13.57;7.17;;;;;7.60;99050.00;;;;5005887;28;20254;-71
2021/12/28 00:32:00;;;;;;;14.00;7.67;;;;;7.60;99033.00;;;;5004584;28;20251;-71
2021/12/28 00:34:47;;;;;;;11.37;6.67;;;;;7.70;99041.00;;;;4985995;28;20744;-70
2021/12/28 00:37:33;;;;;;;13.77;6.77;;;;;7.70;99037.00;;;;5022154;28;20233;-71
2021/12/28 00:40:19;;;;;;;11.30;7.13;;;;;7.60;99029.00;;;;4985250;28;20236;-72
2021/12/28 00:43:09;;;;;;;16.73;7.47;;;;;7.50;99033.00;;;;5005095;28;20237;-71
2021/12/28 00:45:55;;;;;;;11.47;6.73;;;;;7.60;99015.00;;;;5011528;28;20844;-71
2021/12/28 00:48:42;;;;;;;11.50;6.73;;;;;7.70;99020.00;;;;5010048;28;20238;-70
2021/12/28 00:51:28;;;;;;;21.43;6.80;;;;;7.60;99015.00;;;;5013406;28;20230;-71
2021/12/28 00:54:14;;;;;;;45.57;7.17;;;;;7.40;99009.00;;;;5003874;28;20258;-72
2021/12/28 00:57:01;;;;;;;11.37;6.47;;;;;7.40;98999.00;;;;5004855;28;20230;-69
2021/12/28 00:59:48;;;;;;;20.47;6.40;;;;;7.30;99013.00;;;;4981410;28;20726;-71
2021/12/28 01:02:35;;;;;;;8.93;5.80;;;;;7.10;99007.00;;;;5016507;28;20238;-71
2021/12/28 01:05:23;;;;;;;43.33;7.13;;;;;7.00;99011.00;;;;5018534;28;20229;-72
2021/12/28 01:08:12;;;;;;;13.20;5.57;;;;;6.90;99005.00;;;;5016342;28;20886;-70
2021/12/28 01:10:59;;;;;;;9.23;5.23;;;;;7.00;99003.00;;;;5001518;28;20272;-71
2021/12/28 01:13:45;;;;;;;10.70;5.50;;;;;6.90;98991.00;;;;5008133;28;20227;-70
2021/12/28 01:16:33;;;;;;;10.33;5.37;;;;;6.90;98993.00;;;;5009911;28;20277;-70
2021/12/28 01:19:19;;;;;;;8.67;5.50;;;;;6.80;98991.00;;;;4987705;28;20234;-71
2021/12/28 01:22:07;;;;;;;16.57;5.83;;;;;6.70;98989.00;;;;5007853;28;20272;-71
2021/12/28 01:24:53;;;;;;;14.97;5.27;;;;;6.60;98987.00;;;;5010606;28;20299;-70
2021/12/28 01:27:39;;;;;;;33.67;5.63;;;;;6.60;98981.00;;;;5010059;28;20237;-70
2021/12/28 01:30:27;;;;;;;6.87;4.10;;;;;6.50;98976.00;;;;5021778;28;20258;-71
2021/12/28 01:33:15;;;;;;;7.43;5.00;;;;;6.50;98982.00;;;;5010782;28;20298;-69
2021/12/28 01:36:01;;;;;;;6.77;4.57;;;;;6.30;98985.00;;;;4984560;28;20823;-71
2021/12/28 01:38:47;;;;;;;6.23;4.70;;;;;6.20;98983.00;;;;4987326;28;20231;-70
2021/12/28 01:41:36;;;;;;;9.87;4.80;;;;;6.30;98988.00;;;;5014819;28;20248;-70
2021/12/28 01:44:23;;;;;;;6.23;4.50;;;;;6.20;98986.00;;;;4991429;28;20243;-70
2021/12/28 01:47:12;;;;;;;6.80;4.80;;;;;6.10;98985.00;;;;5014313;28;20366;-71
2021/12/28 01:50:00;;;;;;;6.53;4.03;;;;;6.10;98993.00;;;;4990453;28;20278;-71
2021/12/28 01:52:46;;;;;;;7.83;4.37;;;;;6.10;98996.00;;;;4984183;28;20222;-71
2021/12/28 01:55:33;;;;;;;5.20;4.27;;;;;6.00;98988.00;;;;4985964;28;20230;-73
2021/12/28 01:58:20;;;;;;;7.93;4.20;;;;;5.90;98992.00;;;;4987001;28;20233;-70
2021/12/28 02:01:08;;;;;;;6.47;4.50;;;;;6.00;98983.00;;;;5003092;28;20273;-68
2021/12/28 02:03:55;;;;;;;15.13;4.37;;;;;5.90;98978.00;;;;4994575;28;20267;-70
2021/12/28 02:06:43;;;;;;;7.67;4.43;;;;;5.80;98987.00;;;;5012412;28;20225;-67
2021/12/28 02:09:29;;;;;;;5.67;3.90;;;;;5.80;98970.00;;;;5010011;28;20289;-71
2021/12/28 02:12:15;;;;;;;9.17;4.13;;;;;5.80;98970.00;;;;5009244;28;20234;-68
2021/12/28 02:15:06;;;;;;;12.17;4.17;;;;;5.80;98973.00;;;;5000473;28;20241;-71
2021/12/28 02:17:52;;;;;;;5.67;4.23;;;;;5.70;98972.00;;;;5006505;28;20293;-71
2021/12/28 02:20:40;;;;;;;5.73;3.90;;;;;5.70;98972.00;;;;5005676;28;20236;-71
2021/12/28 02:23:27;;;;;;;7.07;4.40;;;;;5.70;98968.00;;;;5019240;28;20822;-71
2021/12/28 02:26:13;;;;;;;9.43;4.00;;;;;5.70;98959.00;;;;4987347;28;20227;-72
2021/12/28 02:29:03;;;;;;;13.90;4.53;;;;;5.50;98963.00;;;;5001807;28;20266;-71
2021/12/28 02:31:55;;;;;;;4.40;3.20;;;;;5.60;98947.00;;;;4980112;28;20241;-70
2021/12/28 02:34:41;;;;;;;5.70;4.10;;;;;5.50;98967.00;;;;5014044;28;20245;-70
2021/12/28 02:37:31;;;;;;;5.40;3.57;;;;;5.40;98965.00;;;;5016668;28;20716;-70
2021/12/28 02:40:20;;;;;;;5.73;3.70;;;;;5.50;98965.00;;;;4999590;28;20233;-72
2021/12/28 02:43:09;;;;;;;6.10;4.03;;;;;5.60;98953.00;;;;5005089;28;20234;-71
2021/12/28 02:45:58;;;;;;;7.67;3.80;;;;;5.50;98960.00;;;;4988521;28;20226;-71
2021/12/28 02:48:44;;;;;;;10.13;3.70;;;;;5.40;98955.00;;;;4995877;28;20238;-70
2021/12/28 02:51:30;;;;;;;5.23;3.93;;;;;5.50;98950.00;;;;4997324;28;20235;-70
2021/12/28 02:54:20;;;;;;;5.50;3.90;;;;;5.50;98947.00;;;;4987196;28;20717;-70
2021/12/28 02:57:06;;;;;;;7.47;4.20;;;;;5.40;98942.00;;;;5010888;28;20238;-71
2021/12/28 02:59:53;;;;;;;6.63;3.93;;;;;5.40;98938.00;;;;4988260;28;20297;-70
2021/12/28 03:02:39;;;;;;;5.63;3.40;;;;;5.40;98941.00;;;;5019074;28;20327;-70
2021/12/28 03:05:26;;;;;;;7.60;3.73;;;;;5.40;98911.00;;;;5004672;28;20246;-69
2021/12/28 03:08:13;;;;;;;7.63;4.30;;;;;5.40;98925.00;;;;5014232;28;20248;-69
2021/12/28 03:11:02;;;;;;;5.87;3.93;;;;;5.40;98937.00;;;;5012581;28;20830;-70
2021/12/28 03:13:51;;;;;;;7.40;3.90;;;;;5.50;98930.00;;;;5010907;28;20230;-68
2021/12/28 03:16:38;;;;;;;6.63;3.93;;;;;5.60;98924.00;;;;5038637;28;20221;-74
2021/12/28 03:19:25;;;;;;;7.60;3.70;;;;;5.60;98932.00;;;;5049848;28;20230;-74
2021/12/28 03:22:11;;;;;;;7.30;3.43;;;;;5.70;98925.00;;;;5035013;28;20292;-74
2021/12/28 03:24:57;;;;;;;5.43;4.07;;;;;5.70;98910.00;;;;5025174;28;20226;-73
2021/12/28 03:27:45;;;;;;;6.37;3.97;;;;;5.70;98920.00;;;;5014733;28;20224;-73
2021/12/28 03:30:32;;;;;;;5.83;3.70;;;;;5.70;98910.00;;;;5050534;28;20252;-73
2021/12/28 03:33:18;;;;;;;6.60;3.77;;;;;5.70;98909.00;;;;5038349;28;20216;-75
2021/12/28 03:36:05;;;;;;;6.47;3.93;;;;;5.70;98909.00;;;;5046535;28;20240;-71
2021/12/28 03:38:52;;;;;;;6.33;3.70;;;;;5.80;98909.00;;;;5040230;28;20266;-73
2021/12/28 03:41:39;;;;;;;6.50;3.50;;;;;5.70;98899.00;;;;5044108;28;20248;-71
2021/12/28 03:44:26;;;;;;;5.53;3.43;;;;;5.70;98902.00;;;;5023400;28;20265;-73
2021/12/28 03:47:12;;;;;;;5.77;3.67;;;;;5.70;98896.00;;;;5038691;28;20222;-74
2021/12/28 03:49:59;;;;;;;7.23;3.60;;;;;5.80;98893.00;;;;5023710;28;20257;-71
2021/12/28 03:52:50;;;;;;;6.70;3.77;;;;;5.60;98889.00;;;;5000942;28;20268;-71
2021/12/28 03:55:37;;;;;;;5.53;3.90;;;;;5.60;98880.00;;;;5011997;28;20921;-71
2021/12/28 03:58:23;;;;;;;5.10;3.27;;;;;5.50;98882.00;;;;4989521;28;20231;-72
2021/12/28 04:01:14;;;;;;;5.70;3.23;;;;;5.50;98884.00;;;;5014886;28;20237;-72
2021/12/28 04:04:00;;;;;;;4.90;3.13;;;;;5.50;98878.00;;;;5007891;28;20255;-71
2021/12/28 04:06:46;;;;;;;9.23;3.10;;;;;5.40;98873.00;;;;4985472;28;20334;-74
2021/12/28 04:10:00;;;;;;;3.73;2.93;;;;;5.30;98872.00;;;;5016978;28;20935;-71
2021/12/28 04:12:46;;;;;;;4.67;3.03;;;;;5.30;98868.00;;;;5004135;28;20225;-71
2021/12/28 04:15:33;;;;;;;3.70;2.67;;;;;5.20;98866.00;;;;5009044;28;20229;-72
2021/12/28 04:18:21;;;;;;;4.10;3.13;;;;;5.20;98870.00;;;;5004831;28;20691;-72
2021/12/28 04:21:09;;;;;;;5.20;2.90;;;;;5.20;98859.00;;;;4995368;28;20704;-72
2021/12/28 04:23:55;;;;;;;4.90;2.90;;;;;5.10;98857.00;;;;4999208;28;20310;-71
2021/12/28 04:26:42;;;;;;;3.70;2.87;;;;;5.10;98855.00;;;;5008527;28;20229;-72
2021/12/28 04:29:28;;;;;;;16.03;3.47;;;;;4.90;98858.00;;;;5010755;28;20237;-71
2021/12/28 04:32:15;;;;;;;3.63;2.90;;;;;4.90;98847.00;;;;4989859;28;20331;-71
2021/12/28 04:35:03;;;;;;;7.03;3.00;;;;;4.90;98854.00;;;;5000304;28;20700;-71
2021/12/28 04:37:50;;;;;;;4.07;2.60;;;;;4.90;98847.00;;;;5012489;28;20225;-71
2021/12/28 04:40:36;;;;;;;5.20;3.37;;;;;4.80;98842.00;;;;5012001;28;20295;-72
2021/12/28 04:43:22;;;;;;;11.03;3.33;;;;;4.70;98845.00;;;;4991397;28;20249;-71
2021/12/28 04:46:10;;;;;;;8.10;3.40;;;;;4.70;98822.00;;;;5005191;28;20229;-71
2021/12/28 04:48:56;;;;;;;7.50;3.63;;;;;4.70;98835.00;;;;4986381;28;20835;-72
2021/12/28 04:51:43;;;;;;;5.83;3.60;;;;;4.70;98833.00;;;;4991988;28;20222;-73
2021/12/28 04:54:29;;;;;;;5.43;3.63;;;;;4.70;98822.00;;;;5013809;28;20291;-70
2021/12/28 04:57:16;;;;;;;5.67;3.40;;;;;4.70;98802.00;;;;5015313;28;20233;-71
2021/12/28 05:00:02;;;;;;;7.30;3.50;;;;;4.70;98826.00;;;;5003858;28;20234;-71
2021/12/28 05:02:50;;;;;;;6.60;3.83;;;;;4.60;98825.00;;;;4981451;28;20729;-71
2021/12/28 05:05:43;;;;;;;4.57;3.50;;;;;4.60;98818.00;;;;5010111;28;20237;-70
2021/12/28 05:08:31;;;;;;;6.83;3.97;;;;;4.60;98821.00;;;;4988119;28;20242;-71
2021/12/28 05:11:17;;;;;;;5.17;3.47;;;;;4.50;98819.00;;;;5014078;28;20264;-71
2021/12/28 05:14:05;;;;;;;5.87;3.80;;;;;4.50;98818.00;;;;5008829;28;20233;-72
2021/12/28 05:16:51;;;;;;;9.47;4.10;;;;;4.60;98815.00;;;;4985445;28;20238;-71
2021/12/28 05:19:37;;;;;;;9.07;4.10;;;;;4.60;98811.00;;;;5020651;28;20233;-70
2021/12/28 05:22:24;;;;;;;5.00;3.50;;;;;4.50;98810.00;;;;4988629;28;20226;-72
2021/12/28 05:25:12;;;;;;;5.70;3.70;;;;;4.50;98813.00;;;;5007184;28;20286;-73
2021/12/28 05:27:58;;;;;;;7.40;4.03;;;;;4.60;98823.00;;;;4985601;28;20278;-71
2021/12/28 05:30:44;;;;;;;6.30;3.47;;;;;4.50;98810.00;;;;4983537;28;20233;-72
2021/12/28 05:33:31;;;;;;;6.93;4.27;;;;;4.60;98811.00;;;;5015158;28;20240;-72
2021/12/28 05:36:17;;;;;;;7.70;3.90;;;;;4.70;98813.00;;;;4992077;28;20235;-72
2021/12/28 05:39:04;;;;;;;8.97;3.60;;;;;4.70;98809.00;;;;5001271;28;20891;-71
2021/12/28 05:41:52;;;;;;;6.43;4.10;;;;;4.70;98802.00;;;;4981561;28;20218;-72
2021/12/28 05:44:38;;;;;;;9.73;3.83;;;;;4.80;98805.00;;;;5016659;28;20337;-69
2021/12/28 05:47:24;;;;;;;8.73;4.03;;;;;4.90;98800.00;;;;4989028;28;20230;-71
2021/12/28 05:50:11;;;;;;;11.30;4.07;;;;;4.90;98793.00;;;;5017290;28;20913;-71
2021/12/28 05:52:57;;;;;;;7.30;4.23;;;;;4.80;98798.00;;;;4985242;28;20233;-72
2021/12/28 05:55:44;;;;;;;8.63;4.47;;;;;4.90;98787.00;;;;4985747;28;20255;-71
2021/12/28 05:58:32;;;;;;;11.80;4.47;;;;;5.00;98788.00;;;;5009958;28;20362;-69
2021/12/28 06:01:19;;;;;;;7.03;4.40;;;;;5.00;98774.00;;;;4986990;28;20229;-72
2021/12/28 06:04:07;;;;;;;6.43;3.93;;;;;4.90;98777.00;;;;5009508;28;20229;-71
2021/12/28 06:06:53;;;;;;;6.17;3.77;;;;;5.00;98768.00;;;;5008157;28;20813;-71
2021/12/28 06:09:39;;;;;;;9.10;4.37;;;;;5.10;98777.00;;;;5003553;28;20230;-71
2021/12/28 06:12:25;;;;;;;8.40;4.10;;;;;5.00;98775.00;;;;4997231;28;20309;-71
2021/12/28 06:15:14;;;;;;;9.07;4.13;;;;;5.10;98780.00;;;;4999479;28;20237;-71
2021/12/28 06:18:00;;;;;;;7.67;3.90;;;;;5.10;98779.00;;;;5000767;28;20257;-70
2021/12/28 06:20:46;;;;;;;8.77;4.10;;;;;5.10;98777.00;;;;5006014;28;20315;-71
2021/12/28 06:23:33;;;;;;;7.50;3.93;;;;;5.00;98788.00;;;;5012110;28;20323;-71
2021/12/28 06:26:19;;;;;;;10.50;4.17;;;;;5.20;98774.00;;;;5020633;28;20229;-71
2021/12/28 06:29:07;;;;;;;7.47;3.67;;;;;5.20;98771.00;;;;5010427;28;20273;-72
2021/12/28 06:31:55;;;;;;;8.10;3.73;;;;;5.10;98772.00;;;;5007798;28;20729;-71
2021/12/28 06:34:42;;;;;;;10.60;3.77;;;;;5.10;98780.00;;;;5008690;28;20361;-70
2021/12/28 06:37:28;;;;;;;8.33;3.90;;;;;5.10;98771.00;;;;4986354;28;20238;-74
2021/12/28 06:40:14;;;;;;;6.90;4.03;;;;;5.10;98772.00;;;;5009994;28;20369;-73
2021/12/28 06:43:01;;;;;;;9.70;3.60;;;;;5.00;98770.00;;;;5001338;28;20231;-72
2021/12/28 06:45:47;;;;;;;5.33;3.40;;;;;4.90;98753.00;;;;4984447;28;20328;-72
2021/12/28 06:48:35;;;;;;;5.10;3.63;;;;;4.90;98744.00;;;;5006880;28;20300;-71
2021/12/28 06:51:21;;;;;;;8.40;3.10;;;;;4.80;98748.00;;;;4985857;28;20246;-72
2021/12/28 06:54:07;;;;;;;5.93;3.30;;;;;4.80;98742.00;;;;5001001;28;20240;-72
2021/12/28 06:56:53;;;;;;;8.87;3.20;;;;;4.80;98744.00;;;;5008103;28;20257;-72
2021/12/28 06:59:44;;;;;;;4.90;3.20;;;;;4.70;98754.00;;;;5007440;28;20337;-73
2021/12/28 07:02:30;;;;;;;5.93;3.20;;;;;4.70;98750.00;;;;5022436;28;20229;-71
2021/12/28 07:05:18;;;;;;;6.37;3.10;;;;;4.70;98759.00;;;;5006462;28;20398;-71
2021/12/28 07:08:05;;;;;;;6.77;3.00;;;;;4.70;98747.00;;;;4988732;28;20384;-72
2021/12/28 07:10:51;;;;;;;7.53;3.23;;;;;4.60;98745.00;;;;5007020;28;20261;-72
2021/12/28 07:13:38;;;;;;;10.67;5.57;;;;;4.70;98744.00;;;;5005696;28;21731;-72
2021/12/28 07:16:24;;;;;;;44.30;19.47;;;;;4.70;98736.00;;;;5006160;28;20230;-73
2021/12/28 07:19:11;;;;;;;13.23;6.57;;;;;4.70;98730.00;;;;5001382;28;20233;-72
2021/12/28 07:21:59;;;;;;;6.73;3.70;;;;;4.70;98744.00;;;;4999636;28;20225;-71
2021/12/28 07:24:45;;;;;;;7.57;3.40;;;;;4.60;98745.00;;;;4998050;28;20230;-71
2021/12/28 07:27:31;;;;;;;7.47;3.87;;;;;4.70;98750.00;;;;5004993;28;20373;-71
2021/12/28 07:30:18;;;;;;;5.43;3.50;;;;;4.70;98750.00;;;;5008783;28;20271;-71
2021/12/28 07:33:05;;;;;;;6.47;3.70;;;;;4.70;98734.00;;;;5004128;28;20353;-70
2021/12/28 07:35:51;;;;;;;10.60;4.00;;;;;4.80;98747.00;;;;4997110;28;20368;-72
2021/12/28 07:38:39;;;;;;;7.47;3.87;;;;;4.90;98746.00;;;;4997880;28;20373;-70
2021/12/28 07:41:25;;;;;;;7.33;3.80;;;;;4.90;98742.00;;;;4995284;28;20249;-70
2021/12/28 07:44:11;;;;;;;10.43;4.20;;;;;5.00;98742.00;;;;4995986;28;20223;-72
2021/12/28 07:46:58;;;;;;;8.53;4.27;;;;;5.00;98744.00;;;;4995740;28;20233;-72
2021/12/28 07:49:44;;;;;;;9.70;4.47;;;;;5.10;98740.00;;;;5002709;28;20222;-71
2021/12/28 07:52:30;;;;;;;8.00;4.03;;;;;5.20;98733.00;;;;5018657;28;20233;-72
2021/12/28 07:55:18;;;;;;;7.83;4.10;;;;;5.00;98735.00;;;;5005128;28;20242;-71
2021/12/28 07:58:05;;;;;;;6.60;3.83;;;;;5.30;98739.00;;;;4984371;28;20367;-71
2021/12/28 08:00:51;;;;;;;8.77;4.30;;;;;5.30;98753.00;;;;4984009;28;20653;-71
2021/12/28 08:03:37;;;;;;;8.00;3.90;;;;;5.40;98734.00;;;;5010757;28;20304;-72
2021/12/28 08:06:23;;;;;;;14.07;4.30;;;;;5.50;98742.00;;;;4988973;28;20366;-72
2021/12/28 08:09:09;;;;;;;9.13;4.40;;;;;5.50;98730.00;;;;5016830;28;20229;-72
2021/12/28 08:11:57;;;;;;;7.67;4.23;;;;;5.60;98736.00;;;;5015268;28;20288;-71
2021/12/28 08:14:43;;;;;;;14.43;4.30;;;;;5.60;98720.00;;;;5003166;28;20230;-72
2021/12/28 08:17:30;;;;;;;10.23;4.00;;;;;5.60;98714.00;;;;5013019;28;20234;-73
2021/12/28 08:20:17;;;;;;;11.87;4.57;;;;;5.60;98732.00;;;;5013644;28;20297;-71
2021/12/28 08:23:04;;;;;;;9.73;3.97;;;;;5.60;98729.00;;;;4986619;28;20231;-69
2021/12/28 08:25:50;;;;;;;8.53;3.70;;;;;5.60;98717.00;;;;4980891;28;20234;-71
2021/12/28 08:28:38;;;;;;;11.53;4.17;;;;;5.70;98722.00;;;;5015958;28;20640;-69
2021/12/28 08:31:24;;;;;;;10.87;3.83;;;;;5.80;98713.00;;;;4990156;28;20292;-72
2021/12/28 08:34:11;;;;;;;10.57;4.10;;;;;5.90;98719.00;;;;4991985;28;20320;-72
2021/12/28 08:36:57;;;;;;;9.30;3.83;;;;;6.00;98737.00;;;;4976883;28;20289;-71
2021/12/28 08:39:43;;;;;;;10.60;3.70;;;;;6.00;98730.00;;;;4993910;28;20234;-71
2021/12/28 08:42:29;;;;;;;10.37;3.50;;;;;6.00;98731.00;;;;4988120;28;20722;-67
2021/12/28 08:45:18;;;;;;;6.93;3.60;;;;;6.00;98735.00;;;;5003864;28;20231;-70
2021/12/28 08:48:06;;;;;;;6.47;3.73;;;;;6.20;98742.00;;;;5002994;28;20235;-71
2021/12/28 08:50:53;;;;;;;11.03;4.20;;;;;6.30;98721.00;;;;5014316;28;20740;-71
2021/12/28 08:53:39;;;;;;;11.47;4.40;;;;;6.40;98748.00;;;;5011035;28;20328;-70
2021/12/28 08:56:26;;;;;;;8.57;3.60;;;;;6.40;98739.00;;;;4988366;28;20362;-72
2021/12/28 08:59:13;;;;;;;11.70;4.17;;;;;6.50;98739.00;;;;5004999;28;20249;-74
2021/12/28 09:02:01;;;;;;;11.13;3.93;;;;;6.80;98727.00;;;;5008720;28;20250;-66
2021/12/28 09:04:48;;;;;;;12.60;4.50;;;;;6.90;98739.00;;;;5002330;28;20238;-72
2021/12/28 09:07:34;;;;;;;15.93;4.60;;;;;6.90;98733.00;;;;5022844;28;20233;-73
2021/12/28 09:10:21;;;;;;;13.37;4.73;;;;;7.00;98715.00;;;;5008344;28;20730;-73
2021/12/28 09:13:09;;;;;;;7.67;3.53;;;;;7.00;98716.00;;;;5014155;28;20372;-72
2021/12/28 09:15:55;;;;;;;8.37;3.93;;;;;7.10;98708.00;;;;4985854;28;20298;-68
2021/12/28 09:18:43;;;;;;;11.33;4.10;;;;;7.10;98698.00;;;;4987852;28;20270;-71
2021/12/28 09:21:30;;;;;;;18.47;3.93;;;;;7.10;98704.00;;;;4987462;28;20301;-72
2021/12/28 09:24:16;;;;;;;8.87;3.30;;;;;7.30;98701.00;;;;5014988;28;20285;-72
2021/12/28 09:27:23;;;;;;;7.60;3.20;;;;;7.80;98699.00;;;;5009198;28;20237;-71
2021/12/28 09:30:11;;;;;;;7.83;2.73;;;;;7.90;98703.00;;;;5013419;28;20252;-72
2021/12/28 09:32:57;;;;;;;6.13;3.40;;;;;7.90;98703.00;;;;4985652;28;20285;-70
2021/12/28 09:35:44;;;;;;;7.33;3.77;;;;;8.20;98712.00;;;;4984725;28;20369;-69
2021/12/28 09:38:31;;;;;;;6.60;2.80;;;;;8.40;98713.00;;;;4994142;28;20410;-71
2021/12/28 09:41:17;;;;;;;8.17;3.40;;;;;8.40;98706.00;;;;4996198;28;20255;-71
2021/12/28 09:44:05;;;;;;;7.57;2.80;;;;;8.50;98698.00;;;;4997220;28;20234;-71
2021/12/28 09:46:51;;;;;;;10.13;3.03;;;;;8.60;98685.00;;;;4979862;28;20845;-72
2021/12/28 09:49:38;;;;;;;9.30;3.40;;;;;8.70;98692.00;;;;4991401;28;20232;-72
2021/12/28 09:52:25;;;;;;;8.03;2.47;;;;;8.80;98694.00;;;;4975803;28;20240;-72
2021/12/28 09:55:14;;;;;;;7.20;2.70;;;;;8.90;98696.00;;;;4980469;28;20617;-73
2021/12/28 09:58:01;;;;;;;9.33;2.30;;;;;8.90;98693.00;;;;4982665;28;20227;-72
2021/12/28 10:00:47;;;;;;;6.97;2.43;;;;;8.90;98698.00;;;;4992699;28;20234;-72
2021/12/28 10:03:35;;;;;;;4.70;2.43;;;;;9.00;98687.00;;;;5009329;28;20252;-73
2021/12/28 10:06:25;;;;;;;4.87;2.27;;;;;9.00;98685.00;;;;4987055;28;20227;-73
2021/12/28 10:09:15;;;;;;;6.03;2.37;;;;;9.10;98670.00;;;;5006455;28;20227;-72
2021/12/28 10:12:02;;;;;;;6.37;2.10;;;;;9.20;98667.00;;;;5005620;28;20932;-72
2021/12/28 10:14:54;;;;;;;3.67;2.13;;;;;9.40;98668.00;;;;4985395;28;20376;-73
2021/12/28 10:17:43;;;;;;;5.40;2.40;;;;;9.50;98673.00;;;;5004057;28;20220;-73
2021/12/28 10:20:32;;;;;;;4.57;2.30;;;;;9.40;98667.00;;;;4979675;28;20305;-71
2021/12/28 10:23:23;;;;;;;6.17;2.50;;;;;9.40;98667.00;;;;4976448;28;20234;-72
2021/12/28 10:26:15;;;;;;;3.33;2.07;;;;;9.40;98643.00;;;;4993721;28;20315;-73
2021/12/28 10:29:02;;;;;;;6.33;2.37;;;;;9.50;98659.00;;;;4986943;28;20236;-70
2021/12/28 10:31:48;;;;;;;4.67;2.20;;;;;9.50;98649.00;;;;4984307;28;20339;-72
2021/12/28 10:34:45;;;;;;;4.30;2.00;;;;;9.50;98646.00;;;;4986033;28;20240;-72
2021/12/28 10:37:33;;;;;;;5.50;2.63;;;;;9.60;98646.00;;;;5006201;28;20273;-68
2021/12/28 10:40:26;;;;;;;4.80;2.07;;;;;9.50;98641.00;;;;5002642;28;20244;-74
2021/12/28 10:43:15;;;;;;;2.33;2.07;;;;;9.40;98629.00;;;;5005747;28;20256;-72
2021/12/28 10:46:08;;;;;;;4.40;2.47;;;;;9.40;98623.00;;;;5000795;28;20274;-72
2021/12/28 10:48:58;;;;;;;4.53;2.07;;;;;9.30;98619.00;;;;5006296;28;20242;-73
2021/12/28 10:51:46;;;;;;;3.77;2.20;;;;;9.30;98621.00;;;;4984330;28;20716;-72
2021/12/28 10:54:32;;;;;;;6.63;2.30;;;;;9.40;98614.00;;;;5011076;28;20282;-71
2021/12/28 10:57:18;;;;;;;4.50;2.40;;;;;9.40;98610.00;;;;4990234;28;20234;-73
2021/12/28 11:00:31;;;;;;;2.33;1.97;;;;;9.20;98596.00;;;;5006360;28;20242;-73
2021/12/28 11:03:30;;;;;;;3.70;2.17;;;;;9.20;98590.00;;;;5011582;28;20243;-73
2021/12/28 11:06:22;;;;;;;5.67;2.27;;;;;9.20;98586.00;;;;4999331;28;20232;-70
2021/12/28 11:09:10;;;;;;;3.47;2.30;;;;;9.30;98584.00;;;;5010483;28;20240;-74
2021/12/28 11:11:58;;;;;;;6.80;2.47;;;;;9.30;98580.00;;;;5013558;28;20368;-74
2021/12/28 11:14:44;;;;;;;7.70;3.43;;;;;9.50;98585.00;;;;5009927;28;20235;-74
2021/12/28 11:17:32;;;;;;;4.03;2.90;;;;;9.40;98573.00;;;;5018313;28;20235;-70
2021/12/28 11:20:29;;;;;;;6.40;3.27;;;;;9.50;98577.00;;;;5014377;28;20238;-72
2021/12/28 11:23:19;;;;;;;6.67;3.53;;;;;9.30;98580.00;;;;4992128;28;20233;-74
2021/12/28 11:26:10;;;;;;;5.47;3.10;;;;;9.30;98568.00;;;;5016023;28;21020;-72
2021/12/28 11:29:02;;;;;;;7.23;4.10;;;;;9.30;98564.00;;;;4988291;28;20324;-72
2021/12/28 11:31:51;;;;;;;6.97;3.67;;;;;9.30;98565.00;;;;4984949;28;20858;-71
2021/12/28 11:34:42;;;;;;;5.13;3.20;;;;;9.30;98558.00;;;;5013979;28;20353;-71
2021/12/28 11:37:29;;;;;;;6.07;3.50;;;;;9.40;98561.00;;;;4990382;28;20229;-71
2021/12/28 11:40:15;;;;;;;4.90;3.40;;;;;9.30;98551.00;;;;5016301;28;20276;-72
2021/12/28 11:43:02;;;;;;;4.57;3.17;;;;;9.50;98540.00;;;;4997973;28;20233;-72
2021/12/28 11:45:49;;;;;;;3.70;2.83;;;;;9.40;98518.00;;;;4985479;28;20256;-72
2021/12/28 11:48:36;;;;;;;4.43;2.70;;;;;9.40;98519.00;;;;5021209;28;20231;-71
2021/12/28 11:51:25;;;;;;;4.77;2.97;;;;;9.50;98520.00;;;;4986859;28;20215;-73
2021/12/28 11:54:13;;;;;;;3.63;3.10;;;;;9.40;98514.00;;;;4989189;28;20744;-73
2021/12/28 11:57:07;;;;;;;6.10;2.90;;;;;9.40;98507.00;;;;4986024;28;20232;-73
2021/12/28 11:59:55;;;;;;;4.47;3.50;;;;;9.50;98488.00;;;;4991627;28;20228;-73
2021/12/28 12:02:45;;;;;;;5.63;3.10;;;;;9.50;98489.00;;;;5004120;28;20316;-74
2021/12/28 12:05:33;;;;;;;4.17;3.03;;;;;9.50;98485.00;;;;4988845;28;20235;-74
2021/12/28 12:08:21;;;;;;;6.77;3.70;;;;;9.50;98482.00;;;;4985161;28;20241;-73
2021/12/28 12:11:07;;;;;;;7.17;3.47;;;;;9.50;98481.00;;;;4993207;28;20306;-74
2021/12/28 12:13:53;;;;;;;7.67;3.47;;;;;9.60;98472.00;;;;4984659;28;20378;-73
2021/12/28 12:16:40;;;;;;;6.80;3.30;;;;;9.60;98467.00;;;;4990704;28;20319;-73
2021/12/28 12:19:47;;;;;;;5.07;3.30;;;;;9.50;98460.00;;;;4978753;28;20224;-74
2021/12/28 12:22:34;;;;;;;6.47;3.70;;;;;9.70;98444.00;;;;4983912;28;20229;-73
2021/12/28 12:25:24;;;;;;;5.53;3.83;;;;;9.70;98450.00;;;;4986914;28;20672;-73
2021/12/28 12:28:11;;;;;;;4.70;3.60;;;;;9.70;98437.00;;;;4983485;28;20297;-74
2021/12/28 12:30:58;;;;;;;6.33;4.63;;;;;9.60;98437.00;;;;4973228;28;20233;-74
2021/12/28 12:33:45;;;;;;;7.57;3.10;;;;;9.50;98432.00;;;;4978519;28;20231;-73
2021/12/28 12:36:40;;;;;;;5.30;3.50;;;;;9.50;98432.00;;;;4987571;28;20233;-73
2021/12/28 12:39:38;;;;;;;3.40;3.03;;;;;9.60;98430.00;;;;4993261;28;20257;-74
2021/12/28 12:42:26;;;;;;;4.83;3.43;;;;;9.60;98409.00;;;;4983894;28;20226;-73
2021/12/28 12:45:12;;;;;;;7.73;3.10;;;;;9.60;98412.00;;;;5001449;28;20828;-72
2021/12/28 12:47:59;;;;;;;5.17;3.20;;;;;9.60;98405.00;;;;4983144;28;20229;-69
2021/12/28 12:50:45;;;;;;;6.67;4.27;;;;;9.50;98405.00;;;;4987327;28;20839;-75
2021/12/28 12:53:45;;;;;;;4.27;3.00;;;;;9.60;98397.00;;;;5010381;28;20370;-74
2021/12/28 12:56:33;;;;;;;6.23;3.37;;;;;9.70;98393.00;;;;4986478;28;20241;-71
2021/12/28 12:59:27;;;;;;;5.90;2.90;;;;;9.60;98400.00;;;;5027494;28;20398;-73
2021/12/28 13:02:23;;;;;;;4.43;2.93;;;;;9.60;98388.00;;;;5028511;28;20281;-71
2021/12/28 13:05:12;;;;;;;4.27;2.97;;;;;9.70;98397.00;;;;5002842;28;20236;-73
2021/12/28 13:08:08;;;;;;;4.90;3.07;;;;;9.90;98393.00;;;;4982362;28;20229;-73
2021/12/28 13:10:55;;;;;;;5.33;3.80;;;;;9.90;98394.00;;;;4986097;28;20709;-72
2021/12/28 13:13:42;;;;;;;6.67;3.93;;;;;9.80;98407.00;;;;4985488;28;20361;-73
2021/12/28 13:16:30;;;;;;;9.30;4.17;;;;;9.90;98382.00;;;;4987559;28;20852;-73
2021/12/28 13:19:17;;;;;;;12.37;4.60;;;;;10.00;98396.00;;;;5017669;28;20362;-73
2021/12/28 13:22:07;;;;;;;11.73;5.20;;;;;10.00;98398.00;;;;5000157;28;20241;-73
2021/12/28 13:24:56;;;;;;;14.07;5.43;;;;;10.00;98387.00;;;;4997144;28;20273;-73
2021/12/28 13:27:45;;;;;;;12.27;4.57;;;;;9.90;98406.00;;;;4998845;28;20231;-74
2021/12/28 13:30:34;;;;;;;14.87;3.93;;;;;9.90;98404.00;;;;4997239;28;20785;-76
2021/12/28 13:33:31;;;;;;;8.00;3.13;;;;;10.00;98415.00;;;;5002907;28;20241;-75
2021/12/28 13:36:18;;;;;;;15.77;3.43;;;;;10.00;98409.00;;;;5007258;28;20234;-78
2021/12/28 13:39:06;;;;;;;13.83;3.27;;;;;10.00;98416.00;;;;5002615;28;20236;-76
2021/12/28 13:41:53;;;;;;;12.70;2.90;;;;;10.00;98413.00;;;;5001452;28;20310;-76
2021/12/28 13:44:43;;;;;;;11.50;3.10;;;;;9.90;98417.00;;;;5014680;28;20347;-74
2021/12/28 13:47:29;;;;;;;13.63;2.83;;;;;9.90;98412.00;;;;4989753;28;20230;-74
2021/12/28 13:50:18;;;;;;;14.00;2.87;;;;;10.00;98420.00;;;;5014918;28;20229;-74
2021/12/28 13:53:04;;;;;;;18.53;2.53;;;;;9.80;98431.00;;;;4998677;28;20408;-71
2021/12/28 13:55:54;;;;;;;15.13;3.10;;;;;9.90;98411.00;;;;5004780;28;20736;-71
2021/12/28 13:58:42;;;;;;;19.67;2.80;;;;;9.90;98442.00;;;;4996269;28;20261;-72
2021/12/28 14:01:30;;;;;;;11.77;2.63;;;;;10.00;98448.00;;;;4997002;28;20240;-73
2021/12/28 14:04:19;;;;;;;16.17;2.90;;;;;9.90;98447.00;;;;4998383;28;20313;-70
2021/12/28 14:07:07;;;;;;;14.50;2.67;;;;;9.90;98451.00;;;;5003819;28;20236;-74